createdAt,value
2022-09-13T00:01:51.714Z,3.13
2022-09-13T00:04:18.429Z,3.33
2022-09-13T00:06:45.138Z,3.00
2022-09-13T00:09:11.808Z,3.03
2022-09-13T00:11:43.003Z,3.17
2022-09-13T00:14:10.436Z,3.33
2022-09-13T00:16:39.424Z,3.17
2022-09-13T00:19:06.450Z,2.80
2022-09-13T00:21:33.261Z,3.25
2022-09-13T00:23:59.926Z,3.50
2022-09-13T00:26:28.334Z,3.15
2022-09-13T00:28:57.678Z,3.15
2022-09-13T00:31:30.288Z,3.05
2022-09-13T00:33:59.823Z,3.78
2022-09-13T00:36:26.841Z,3.40
2022-09-13T00:38:55.790Z,3.33
2022-09-13T00:41:23.350Z,3.23
2022-09-13T00:43:52.845Z,3.40
2022-09-13T00:46:40.655Z,3.30
2022-09-13T00:49:16.584Z,3.20
2022-09-13T00:51:50.829Z,3.78
2022-09-13T00:54:25.845Z,3.38
2022-09-13T00:56:58.286Z,3.03
2022-09-13T00:59:43.441Z,3.47
2022-09-13T01:02:10.803Z,3.13
2022-09-13T01:04:38.673Z,3.30
2022-09-13T01:07:09.308Z,3.33
2022-09-13T01:09:38.089Z,3.47
2022-09-13T01:12:10.115Z,3.45
2022-09-13T01:14:37.537Z,4.20
2022-09-13T01:17:06.969Z,3.80
2022-09-13T01:19:36.749Z,3.42
2022-09-13T01:25:30.321Z,3.35
2022-09-13T01:27:56.973Z,3.50
2022-09-13T01:30:28.511Z,3.22
2022-09-13T01:32:58.084Z,3.28
2022-09-13T01:35:58.815Z,4.22
2022-09-13T01:38:44.970Z,3.90
2022-09-13T01:41:31.657Z,3.72
2022-09-13T01:43:58.278Z,3.35
2022-09-13T01:46:45.308Z,3.95
2022-09-13T01:49:14.226Z,3.90
2022-09-13T01:52:07.813Z,4.37
2022-09-13T01:54:50.911Z,3.22
2022-09-13T01:57:32.692Z,3.30
2022-09-13T02:00:12.981Z,3.58
2022-09-13T02:02:59.901Z,3.35
2022-09-13T02:05:47.816Z,3.80
2022-09-13T02:08:23.011Z,3.90
2022-09-13T02:10:54.828Z,3.30
2022-09-13T02:13:26.812Z,3.50
2022-09-13T02:15:59.820Z,3.72
2022-09-13T02:18:34.714Z,3.15
2022-09-13T02:21:27.075Z,3.60
2022-09-13T02:24:07.597Z,3.50
2022-09-13T02:26:39.682Z,3.70
2022-09-13T02:29:11.168Z,3.80
2022-09-13T02:31:44.505Z,3.60
2022-09-13T02:34:25.367Z,3.83
2022-09-13T02:36:55.368Z,3.55
2022-09-13T02:39:29.707Z,3.83
2022-09-13T02:41:58.771Z,3.67
2022-09-13T02:44:37.295Z,3.75
2022-09-13T02:47:11.976Z,4.03
2022-09-13T02:50:02.561Z,3.85
2022-09-13T02:52:54.239Z,3.83
2022-09-13T02:55:45.981Z,3.58
2022-09-13T02:58:17.710Z,3.65
2022-09-13T03:00:45.889Z,3.53
2022-09-13T03:03:17.867Z,3.67
2022-09-13T03:05:44.719Z,3.95
2022-09-13T03:08:14.373Z,4.30
2022-09-13T03:13:27.836Z,4.18
2022-09-13T03:16:03.604Z,3.95
2022-09-13T03:18:36.297Z,3.92
2022-09-13T03:21:38.976Z,3.97
2022-09-13T03:24:22.583Z,3.80
2022-09-13T03:27:10.814Z,4.10
2022-09-13T03:29:48.891Z,3.92
2022-09-13T03:32:30.751Z,3.72
2022-09-13T03:35:00.218Z,3.65
2022-09-13T03:38:01.553Z,3.63
2022-09-13T03:40:45.735Z,3.88
2022-09-13T03:43:26.872Z,3.90
2022-09-13T03:45:59.604Z,3.72
2022-09-13T03:48:30.104Z,3.83
2022-09-13T03:50:59.080Z,4.63
2022-09-13T03:53:28.446Z,3.78
2022-09-13T03:55:55.182Z,3.72
2022-09-13T03:58:22.264Z,3.80
2022-09-13T04:00:49.159Z,3.83
2022-09-13T04:03:16.063Z,3.60
2022-09-13T04:05:42.792Z,3.70
2022-09-13T04:08:09.841Z,3.60
2022-09-13T04:10:37.728Z,8.65
2022-09-13T04:13:05.140Z,6.60
2022-09-13T04:15:31.972Z,5.03
2022-09-13T04:17:59.543Z,4.60
2022-09-13T04:20:26.214Z,4.47
2022-09-13T04:22:57.572Z,4.05
2022-09-13T04:25:24.891Z,4.10
2022-09-13T04:28:00.901Z,4.00
2022-09-13T04:30:28.417Z,3.50
2022-09-13T04:33:00.355Z,3.70
2022-09-13T04:35:29.765Z,3.58
2022-09-13T04:37:57.948Z,3.95
2022-09-13T04:40:25.379Z,3.42
2022-09-13T04:42:54.185Z,3.65
2022-09-13T04:45:20.827Z,3.37
2022-09-13T04:47:52.644Z,3.13
2022-09-13T04:50:26.945Z,3.50
2022-09-13T04:52:55.420Z,3.50
2022-09-13T04:55:22.545Z,3.00
2022-09-13T04:57:56.497Z,3.45
2022-09-13T05:00:25.061Z,4.00
2022-09-13T05:02:58.479Z,3.30
2022-09-13T05:05:29.213Z,3.50
2022-09-13T05:07:55.982Z,3.40
2022-09-13T05:10:25.154Z,3.47
2022-09-13T05:12:52.596Z,3.63
2022-09-13T05:15:19.254Z,3.45
2022-09-13T05:17:48.371Z,3.67
2022-09-13T05:20:15.116Z,3.92
2022-09-13T05:22:41.812Z,4.43
2022-09-13T05:25:08.760Z,4.05
2022-09-13T05:27:35.435Z,4.55
2022-09-13T05:30:02.137Z,4.15
2022-09-13T05:32:30.511Z,3.83
2022-09-13T05:34:57.224Z,3.80
2022-09-13T05:37:23.891Z,3.42
2022-09-13T05:40:10.282Z,4.00
2022-09-13T05:42:37.333Z,3.83
2022-09-13T05:45:06.798Z,4.05
2022-09-13T05:47:33.493Z,3.72
2022-09-13T05:50:10.313Z,3.65
2022-09-13T05:52:40.870Z,3.90
2022-09-13T05:55:10.299Z,3.40
2022-09-13T05:57:39.453Z,3.40
2022-09-13T06:00:06.699Z,3.75
2022-09-13T06:02:35.991Z,4.00
2022-09-13T06:05:02.736Z,3.42
2022-09-13T06:07:29.454Z,3.88
2022-09-13T06:09:58.626Z,3.72
2022-09-13T06:12:25.275Z,3.72
2022-09-13T06:14:51.936Z,3.42
2022-09-13T06:17:18.593Z,3.70
2022-09-13T06:19:45.272Z,3.67
2022-09-13T06:22:11.961Z,3.50
2022-09-13T06:24:38.917Z,3.60
2022-09-13T06:27:07.846Z,3.75
2022-09-13T06:29:34.533Z,4.43
2022-09-13T06:32:01.373Z,3.22
2022-09-13T06:34:31.246Z,3.40
2022-09-13T06:36:58.082Z,3.40
2022-09-13T06:39:24.710Z,3.40
2022-09-13T06:41:51.347Z,3.65
2022-09-13T06:44:20.315Z,3.17
2022-09-13T06:46:47.225Z,3.53
2022-09-13T06:49:13.939Z,3.30
2022-09-13T06:51:40.641Z,3.78
2022-09-13T06:54:07.452Z,3.40
2022-09-13T06:56:36.175Z,3.15
2022-09-13T06:59:05.693Z,3.38
2022-09-13T07:01:40.748Z,3.15
2022-09-13T07:04:09.192Z,3.00
2022-09-13T07:06:38.833Z,2.80
2022-09-13T07:11:36.058Z,2.70
2022-09-13T07:16:31.541Z,2.90
2022-09-13T07:19:12.093Z,2.92
2022-09-13T07:21:38.851Z,2.65
2022-09-13T07:24:05.800Z,3.30
2022-09-13T07:26:32.552Z,2.88
2022-09-13T07:29:03.975Z,2.60
2022-09-13T07:31:41.998Z,3.20
2022-09-13T07:34:17.308Z,2.60
2022-09-13T07:36:46.756Z,2.90
2022-09-13T07:39:18.162Z,3.17
2022-09-13T07:41:47.225Z,2.90
2022-09-13T07:44:14.693Z,2.78
2022-09-13T07:46:43.411Z,2.60
2022-09-13T07:49:11.919Z,3.20
2022-09-13T07:51:39.696Z,3.10
2022-09-13T07:54:08.203Z,3.10
2022-09-13T07:56:44.698Z,2.88
2022-09-13T07:59:13.167Z,2.90
2022-09-13T08:01:41.980Z,2.55
2022-09-13T08:04:13.420Z,2.95
2022-09-13T08:06:41.117Z,2.67
2022-09-13T08:09:09.066Z,2.92
2022-09-13T08:11:37.621Z,2.83
2022-09-13T08:14:07.952Z,2.92
2022-09-13T08:16:39.345Z,2.63
2022-09-13T08:19:13.393Z,2.85
2022-09-13T08:21:43.561Z,3.00
2022-09-13T08:24:16.787Z,2.58
2022-09-13T08:26:44.364Z,3.08
2022-09-13T08:29:12.151Z,2.22
2022-09-13T08:31:41.311Z,2.28
2022-09-13T08:34:11.911Z,2.40
2022-09-13T08:36:38.738Z,2.33
2022-09-13T08:39:07.858Z,2.45
2022-09-13T08:41:40.386Z,2.83
2022-09-13T08:44:28.011Z,2.90
2022-09-13T08:47:06.459Z,2.40
2022-09-13T08:49:41.284Z,2.08
2022-09-13T08:52:28.577Z,2.50
2022-09-13T08:54:58.361Z,2.50
2022-09-13T08:57:51.658Z,2.60
2022-09-13T09:00:26.449Z,2.25
2022-09-13T09:02:53.859Z,2.33
2022-09-13T09:05:29.636Z,2.13
2022-09-13T09:08:01.709Z,2.22
2022-09-13T09:10:30.177Z,2.50
2022-09-13T09:13:09.491Z,2.30
2022-09-13T09:15:41.785Z,2.45
2022-09-13T09:18:28.155Z,2.88
2022-09-13T09:20:59.957Z,2.35
2022-09-13T09:23:30.060Z,2.40
2022-09-13T09:26:11.212Z,2.70
2022-09-13T09:28:40.245Z,2.70
2022-09-13T09:31:26.763Z,2.38
2022-09-13T09:34:16.913Z,2.38
2022-09-13T09:37:08.077Z,2.40
2022-09-13T09:39:39.002Z,2.08
2022-09-13T09:42:17.352Z,2.70
2022-09-13T09:44:51.358Z,2.40
2022-09-13T09:47:30.163Z,2.17
2022-09-13T09:50:25.693Z,2.42
2022-09-13T09:53:09.860Z,2.28
2022-09-13T09:56:06.077Z,2.25
2022-09-13T09:58:42.858Z,2.00
2022-09-13T10:01:29.984Z,2.60
2022-09-13T10:04:19.781Z,2.28
2022-09-13T10:06:47.074Z,2.38
2022-09-13T10:09:13.735Z,1.98
2022-09-13T10:11:56.372Z,1.80
2022-09-13T10:14:35.186Z,2.33
2022-09-13T10:17:06.823Z,2.00
2022-09-13T10:19:33.668Z,1.92
2022-09-13T10:22:06.264Z,1.90
2022-09-13T10:24:35.658Z,2.00
2022-09-13T10:29:31.767Z,1.90
2022-09-13T10:32:03.597Z,2.17
2022-09-13T10:34:34.034Z,2.08
2022-09-13T10:37:17.632Z,2.08
2022-09-13T10:39:58.653Z,1.92
2022-09-13T10:42:28.057Z,2.50
2022-09-13T10:47:48.258Z,1.80
2022-09-13T10:50:29.245Z,1.70
2022-09-13T10:52:57.795Z,1.98
2022-09-13T10:55:32.797Z,1.95
2022-09-13T10:58:02.421Z,1.92
2022-09-13T11:00:32.427Z,2.00
2022-09-13T11:03:08.178Z,2.10
2022-09-13T11:06:05.667Z,1.95
2022-09-13T11:08:32.642Z,2.10
2022-09-13T11:11:02.095Z,2.42
2022-09-13T11:16:18.941Z,1.90
2022-09-13T11:18:51.462Z,2.35
2022-09-13T11:21:33.686Z,1.90
2022-09-13T11:24:06.305Z,1.70
2022-09-13T11:27:09.218Z,1.98
2022-09-13T11:30:10.700Z,1.63
2022-09-13T11:32:52.041Z,1.70
2022-09-13T11:35:30.934Z,1.73
2022-09-13T11:38:03.611Z,1.90
2022-09-13T11:40:41.747Z,2.00
2022-09-13T11:43:36.134Z,1.80
2022-09-13T11:46:05.805Z,1.83
2022-09-13T11:49:01.515Z,1.90
2022-09-13T11:51:53.563Z,2.15
2022-09-13T11:54:25.934Z,1.95
2022-09-13T11:57:07.930Z,2.03
2022-09-13T11:59:57.577Z,1.75
2022-09-13T12:02:40.612Z,2.60
2022-09-13T12:05:23.844Z,2.00
2022-09-13T12:08:24.074Z,2.03
2022-09-13T12:10:55.468Z,1.93
2022-09-13T12:13:26.687Z,2.30
2022-09-13T12:15:57.727Z,2.15
2022-09-13T12:19:01.747Z,2.22
2022-09-13T12:21:38.191Z,1.80
2022-09-13T12:24:20.733Z,1.60
2022-09-13T12:26:53.219Z,2.13
2022-09-13T12:29:38.418Z,1.83
2022-09-13T12:32:07.516Z,1.90
2022-09-13T12:35:31.157Z,1.95
2022-09-13T12:38:12.366Z,2.35
2022-09-13T12:41:02.073Z,1.90
2022-09-13T12:43:56.714Z,1.83
2022-09-13T12:46:39.589Z,1.90
2022-09-13T12:49:12.138Z,2.00
2022-09-13T12:52:15.957Z,1.90
2022-09-13T12:54:45.464Z,2.35
2022-09-13T12:57:38.552Z,2.17
2022-09-13T13:00:22.205Z,1.80
2022-09-13T13:03:01.258Z,2.20
2022-09-13T13:05:35.571Z,3.17
2022-09-13T13:08:23.447Z,2.10
2022-09-13T13:11:12.437Z,1.65
2022-09-13T13:13:53.923Z,1.50
2022-09-13T13:16:31.593Z,1.65
2022-09-13T13:19:03.622Z,2.30
2022-09-13T13:21:40.496Z,1.80
2022-09-13T13:24:33.512Z,2.05
2022-09-13T13:27:00.364Z,2.00
2022-09-13T13:29:30.479Z,1.90
2022-09-13T13:32:07.908Z,1.70
2022-09-13T13:34:42.282Z,2.00
2022-09-13T13:37:08.950Z,1.92
2022-09-13T13:39:39.988Z,1.70
2022-09-13T13:42:22.459Z,2.30
2022-09-13T13:44:54.899Z,1.70
2022-09-13T13:47:21.576Z,1.52
2022-09-13T13:49:52.570Z,1.92
2022-09-13T13:52:22.414Z,1.60
2022-09-13T13:54:55.046Z,1.40
2022-09-13T13:57:30.132Z,1.85
2022-09-13T14:00:13.513Z,1.60
2022-09-13T14:02:50.487Z,1.83
2022-09-13T14:05:46.774Z,1.90
2022-09-13T14:08:22.836Z,1.70
2022-09-13T14:10:56.307Z,1.70
2022-09-13T14:13:47.169Z,1.88
2022-09-13T14:17:17.985Z,1.95
2022-09-13T14:19:48.825Z,2.03
2022-09-13T14:22:21.389Z,1.92
2022-09-13T14:24:50.708Z,1.70
2022-09-13T14:27:33.716Z,1.85
2022-09-13T14:30:18.074Z,1.80
2022-09-13T14:32:53.856Z,1.70
2022-09-13T14:35:31.994Z,1.70
2022-09-13T14:38:23.297Z,1.60
2022-09-13T14:40:52.413Z,1.90
2022-09-13T14:43:22.546Z,1.75
2022-09-13T14:45:54.910Z,1.63
2022-09-13T14:48:27.872Z,1.73
2022-09-13T14:50:58.311Z,2.15
2022-09-13T14:53:27.745Z,1.70
2022-09-13T14:55:59.584Z,1.77
2022-09-13T14:58:32.525Z,1.92
2022-09-13T15:01:06.339Z,1.70
2022-09-13T15:03:33.568Z,2.20
2022-09-13T15:06:04.976Z,2.20
2022-09-13T15:08:34.890Z,1.80
2022-09-13T15:11:05.642Z,2.15
2022-09-13T15:13:33.262Z,2.00
2022-09-13T15:16:01.412Z,2.10
2022-09-13T15:18:36.651Z,2.97
2022-09-13T15:21:15.242Z,2.38
2022-09-13T15:23:43.328Z,2.03
2022-09-13T15:26:14.944Z,2.30
2022-09-13T15:28:43.688Z,1.95
2022-09-13T15:31:14.630Z,2.22
2022-09-13T15:33:44.262Z,2.17
2022-09-13T15:36:14.340Z,2.40
2022-09-13T15:39:07.976Z,2.25
2022-09-13T15:41:36.282Z,2.03
2022-09-13T15:44:04.648Z,1.88
2022-09-13T15:46:31.923Z,2.10
2022-09-13T15:49:06.905Z,2.20
2022-09-13T15:51:39.083Z,2.15
2022-09-13T15:54:12.004Z,1.80
2022-09-13T15:56:42.083Z,1.77
2022-09-13T15:59:11.866Z,1.80
2022-09-13T16:01:41.135Z,2.00
2022-09-13T16:06:35.245Z,2.00
2022-09-13T16:09:02.446Z,2.47
2022-09-13T16:11:29.146Z,1.80
2022-09-13T16:13:57.975Z,1.83
2022-09-13T16:16:27.218Z,1.67
2022-09-13T16:18:56.356Z,1.88
2022-09-13T16:21:23.411Z,2.25
2022-09-13T16:23:52.554Z,2.45
2022-09-13T16:26:19.631Z,2.30
2022-09-13T16:28:48.688Z,2.33
2022-09-13T16:31:16.616Z,2.00
2022-09-13T16:33:43.765Z,1.88
2022-09-13T16:36:12.895Z,2.10
2022-09-13T16:38:39.813Z,2.20
2022-09-13T16:41:07.409Z,2.08
2022-09-13T16:43:34.331Z,2.33
2022-09-13T16:46:07.763Z,1.75
2022-09-13T16:48:34.510Z,2.60
2022-09-13T16:51:11.727Z,1.98
2022-09-13T16:53:41.140Z,2.33
2022-09-13T16:58:42.553Z,2.28
2022-09-13T17:01:10.803Z,2.10
2022-09-13T17:03:38.219Z,2.10
2022-09-13T17:06:07.351Z,2.08
2022-09-13T17:08:36.054Z,1.92
2022-09-13T17:11:11.284Z,2.23
2022-09-13T17:13:39.291Z,2.30
2022-09-13T17:16:17.305Z,2.20
2022-09-13T17:18:44.235Z,2.92
2022-09-13T17:21:13.379Z,2.20
2022-09-13T17:23:40.065Z,2.50
2022-09-13T17:26:09.227Z,3.05
2022-09-13T17:28:36.652Z,2.60
2022-09-13T17:31:03.539Z,2.33
2022-09-13T17:33:30.365Z,2.50
2022-09-13T17:36:08.254Z,2.72
2022-09-13T17:38:36.200Z,2.13
2022-09-13T17:41:08.820Z,2.35
2022-09-13T17:43:36.793Z,2.58
2022-09-13T17:46:07.848Z,2.40
2022-09-13T17:48:34.956Z,2.33
2022-09-13T17:51:12.700Z,2.85
2022-09-13T17:53:46.050Z,3.13
2022-09-13T17:56:18.763Z,2.80
2022-09-13T17:58:45.926Z,2.30
2022-09-13T18:01:12.752Z,2.47
2022-09-13T18:03:39.551Z,2.83
2022-09-13T18:06:10.471Z,3.53
2022-09-13T18:08:39.739Z,2.75
2022-09-13T18:11:22.192Z,3.08
2022-09-13T18:13:49.406Z,3.40
2022-09-13T18:16:22.580Z,2.80
2022-09-13T18:18:51.327Z,3.20
2022-09-13T18:21:25.162Z,2.80
2022-09-13T18:23:54.374Z,2.90
2022-09-13T18:26:23.269Z,3.17
2022-09-13T18:29:01.506Z,2.85
2022-09-13T18:31:29.704Z,3.08
2022-09-13T18:33:58.955Z,2.50
2022-09-13T18:36:26.990Z,2.70
2022-09-13T18:38:56.925Z,3.00
2022-09-13T18:41:28.646Z,3.30
2022-09-13T18:43:56.317Z,3.28
2022-09-13T18:46:25.468Z,3.17
2022-09-13T18:48:54.616Z,3.42
2022-09-13T18:51:30.432Z,2.53
2022-09-13T18:53:58.683Z,3.25
2022-09-13T18:56:28.348Z,3.00
2022-09-13T18:58:58.911Z,3.08
2022-09-13T19:01:31.963Z,2.90
2022-09-13T19:04:00.063Z,3.00
2022-09-13T19:06:32.883Z,2.95
2022-09-13T19:09:00.807Z,2.92
2022-09-13T19:11:48.651Z,2.65
2022-09-13T19:14:25.517Z,2.70
2022-09-13T19:16:54.598Z,2.70
2022-09-13T19:19:23.650Z,3.00
2022-09-13T19:21:52.596Z,2.90
2022-09-13T19:24:24.358Z,3.03
2022-09-13T19:26:56.302Z,2.92
2022-09-13T19:29:26.700Z,2.83
2022-09-13T19:31:55.749Z,3.03
2022-09-13T19:34:23.447Z,3.30
2022-09-13T19:36:59.143Z,2.80
2022-09-13T19:39:29.661Z,2.92
2022-09-13T19:41:57.583Z,3.25
2022-09-13T19:44:24.674Z,2.90
2022-09-13T19:47:06.935Z,2.90
2022-09-13T19:49:40.244Z,2.65
2022-09-13T19:52:09.555Z,2.88
2022-09-13T19:54:36.658Z,3.22
2022-09-13T19:57:03.821Z,3.50
2022-09-13T19:59:34.284Z,3.13
2022-09-13T20:02:01.644Z,3.60
2022-09-13T20:04:30.130Z,3.20
2022-09-13T20:06:57.373Z,4.18
2022-09-13T20:09:24.456Z,3.10
2022-09-13T20:11:52.930Z,3.72
2022-09-13T20:19:41.529Z,3.60
2022-09-13T20:22:09.936Z,3.22
2022-09-13T20:24:37.447Z,3.28
2022-09-13T20:27:04.771Z,3.42
2022-09-13T20:29:34.423Z,3.20
2022-09-13T20:32:02.243Z,3.40
2022-09-13T20:34:29.467Z,2.97
2022-09-13T20:36:56.540Z,3.45
2022-09-13T20:39:23.671Z,3.30
2022-09-13T20:41:50.823Z,2.80
2022-09-13T20:44:18.050Z,3.22
2022-09-13T20:46:45.123Z,3.20
2022-09-13T20:49:14.710Z,3.55
2022-09-13T20:56:38.271Z,3.20
2022-09-13T20:59:05.696Z,2.83
2022-09-13T21:01:33.515Z,3.40
2022-09-13T21:04:01.171Z,3.67
2022-09-13T21:06:31.205Z,3.00
2022-09-13T21:09:01.513Z,3.13
2022-09-13T21:11:38.538Z,3.08
2022-09-13T21:14:09.490Z,3.63
2022-09-13T21:16:41.297Z,2.90
2022-09-13T21:19:09.122Z,3.17
2022-09-13T21:21:39.827Z,3.70
2022-09-13T21:24:09.687Z,3.22
2022-09-13T21:26:37.597Z,2.80
2022-09-13T21:29:05.245Z,3.00
2022-09-13T21:31:35.634Z,3.10
2022-09-13T21:34:04.425Z,3.03
2022-09-13T21:36:32.204Z,3.30
2022-09-13T21:38:59.428Z,3.00
2022-09-13T21:41:27.092Z,2.88
2022-09-13T21:43:54.538Z,3.33
2022-09-13T21:46:25.623Z,3.05
2022-09-13T21:48:55.038Z,3.20
2022-09-13T21:51:25.922Z,3.22
2022-09-13T21:53:58.424Z,3.45
2022-09-13T21:56:26.749Z,3.40
2022-09-13T21:58:53.781Z,3.50
2022-09-13T22:01:27.185Z,3.55
2022-09-13T22:03:54.798Z,2.70
2022-09-13T22:06:24.949Z,3.38
2022-09-13T22:08:53.680Z,4.00
2022-09-13T22:11:22.250Z,3.80
2022-09-13T22:13:49.612Z,3.13
2022-09-13T22:16:19.489Z,2.80
2022-09-13T22:18:47.746Z,3.30
2022-09-13T22:21:16.248Z,3.05
2022-09-13T22:23:46.363Z,3.15
2022-09-13T22:26:15.241Z,3.40
2022-09-13T22:28:44.694Z,3.17
2022-09-13T22:31:16.328Z,3.22
2022-09-13T22:33:43.671Z,3.00
2022-09-13T22:36:14.178Z,3.25
2022-09-13T22:38:41.959Z,3.60
2022-09-13T22:41:11.453Z,3.55
2022-09-13T22:43:39.231Z,3.22
2022-09-13T22:46:09.520Z,3.92
2022-09-13T22:48:36.748Z,3.67
2022-09-13T22:51:04.285Z,3.42
2022-09-13T22:53:32.057Z,3.42
2022-09-13T22:56:28.704Z,3.03
2022-09-13T22:58:56.741Z,4.15
2022-09-13T23:01:24.168Z,3.35
2022-09-13T23:03:51.497Z,3.80
2022-09-13T23:06:22.415Z,3.35
2022-09-13T23:08:50.102Z,3.60
2022-09-13T23:11:18.414Z,3.60
2022-09-13T23:13:46.474Z,4.78
2022-09-13T23:16:36.850Z,5.13
2022-09-13T23:19:04.154Z,5.10
2022-09-13T23:21:33.416Z,4.50
2022-09-13T23:24:01.217Z,5.50
2022-09-13T23:26:31.430Z,4.82
2022-09-13T23:28:59.722Z,5.32
2022-09-13T23:31:31.189Z,5.00
2022-09-13T23:33:59.629Z,5.32
2022-09-13T23:36:28.084Z,5.15
2022-09-13T23:38:58.046Z,5.25
2022-09-13T23:41:25.882Z,4.90
2022-09-13T23:43:53.664Z,5.30
2022-09-13T23:46:20.907Z,5.28
2022-09-13T23:48:48.089Z,5.82
2022-09-13T23:51:19.814Z,5.47
2022-09-13T23:53:47.248Z,5.50
2022-09-13T23:56:16.688Z,5.82
2022-09-13T23:58:44.199Z,5.70
